sensor_id;sensor_type;location;lat;lon;timestamp;pressure;altitude;pressure_sealevel;temperature;humidity
15634;BME280;14654;48.898;8.308;2022-08-19T00:01:32;99850.97;;;20.82;100.00
15634;BME280;14654;48.898;8.308;2022-08-19T00:04:00;99864.09;;;20.82;100.00
15634;BME280;14654;48.898;8.308;2022-08-19T00:06:27;99858.94;;;20.80;100.00
15634;BME280;14654;48.898;8.308;2022-08-19T00:11:18;99857.16;;;20.81;100.00
15634;BME280;14654;48.898;8.308;2022-08-19T00:13:44;99862.50;;;20.79;100.00
15634;BME280;14654;48.898;8.308;2022-08-19T00:16:11;99858.09;;;20.80;100.00
15634;BME280;14654;48.898;8.308;2022-08-19T00:18:36;99856.31;;;20.80;100.00
15634;BME280;14654;48.898;8.308;2022-08-19T00:21:02;99861.41;;;20.83;100.00
15634;BME280;14654;48.898;8.308;2022-08-19T00:23:28;99843.84;;;20.84;100.00
15634;BME280;14654;48.898;8.308;2022-08-19T00:25:55;99844.59;;;20.86;100.00
15634;BME280;14654;48.898;8.308;2022-08-19T00:28:20;99849.75;;;20.88;100.00
15634;BME280;14654;48.898;8.308;2022-08-19T00:30:46;99859.34;;;20.89;100.00
15634;BME280;14654;48.898;8.308;2022-08-19T00:33:11;99863.66;;;20.90;100.00
15634;BME280;14654;48.898;8.308;2022-08-19T00:35:38;99866.03;;;20.94;100.00
15634;BME280;14654;48.898;8.308;2022-08-19T00:38:04;99861.63;;;20.95;100.00
15634;BME280;14654;48.898;8.308;2022-08-19T00:40:32;99858.88;;;20.96;100.00
15634;BME280;14654;48.898;8.308;2022-08-19T00:42:57;99857.94;;;20.97;100.00
15634;BME280;14654;48.898;8.308;2022-08-19T00:45:26;99851.00;;;20.96;100.00
15634;BME280;14654;48.898;8.308;2022-08-19T00:47:51;99845.72;;;20.96;100.00
15634;BME280;14654;48.898;8.308;2022-08-19T00:50:19;99835.22;;;20.96;100.00
15634;BME280;14654;48.898;8.308;2022-08-19T00:52:48;99822.06;;;20.96;100.00
15634;BME280;14654;48.898;8.308;2022-08-19T00:55:23;99820.19;;;20.98;100.00
15634;BME280;14654;48.898;8.308;2022-08-19T00:58:02;99818.41;;;20.99;100.00
15634;BME280;14654;48.898;8.308;2022-08-19T01:00:30;99828.94;;;20.99;100.00
15634;BME280;14654;48.898;8.308;2022-08-19T01:02:55;99849.97;;;20.99;100.00
15634;BME280;14654;48.898;8.308;2022-08-19T01:05:25;99849.13;;;20.98;100.00
15634;BME280;14654;48.898;8.308;2022-08-19T01:07:54;99848.19;;;20.99;100.00
15634;BME280;14654;48.898;8.308;2022-08-19T01:10:23;99854.31;;;21.00;100.00
15634;BME280;14654;48.898;8.308;2022-08-19T01:12:51;99851.56;;;21.01;100.00
15634;BME280;14654;48.898;8.308;2022-08-19T01:15:21;99858.53;;;21.02;100.00
15634;BME280;14654;48.898;8.308;2022-08-19T01:17:48;99849.81;;;21.02;100.00
15634;BME280;14654;48.898;8.308;2022-08-19T01:20:19;99844.44;;;21.04;100.00
15634;BME280;14654;48.898;8.308;2022-08-19T01:22:51;99841.69;;;21.05;100.00
15634;BME280;14654;48.898;8.308;2022-08-19T01:25:19;99838.13;;;21.06;100.00
15634;BME280;14654;48.898;8.308;2022-08-19T01:27:48;99846.91;;;21.07;100.00
15634;BME280;14654;48.898;8.308;2022-08-19T01:30:17;99845.09;;;21.07;100.00
15634;BME280;14654;48.898;8.308;2022-08-19T01:32:43;99837.31;;;21.06;100.00
15634;BME280;14654;48.898;8.308;2022-08-19T01:35:09;99841.69;;;21.05;100.00
15634;BME280;14654;48.898;8.308;2022-08-19T01:37:48;99846.13;;;21.05;100.00
15634;BME280;14654;48.898;8.308;2022-08-19T01:40:14;99858.41;;;21.04;100.00
15634;BME280;14654;48.898;8.308;2022-08-19T01:42:40;99842.75;;;21.02;100.00
15634;BME280;14654;48.898;8.308;2022-08-19T01:45:06;99841.91;;;21.02;100.00
15634;BME280;14654;48.898;8.308;2022-08-19T01:47:34;99831.47;;;21.00;100.00
15634;BME280;14654;48.898;8.308;2022-08-19T01:50:00;99836.84;;;20.99;100.00
15634;BME280;14654;48.898;8.308;2022-08-19T01:52:25;99832.50;;;20.98;100.00
15634;BME280;14654;48.898;8.308;2022-08-19T01:54:52;99832.56;;;20.96;100.00
15634;BME280;14654;48.898;8.308;2022-08-19T01:57:17;99834.38;;;20.96;100.00
15634;BME280;14654;48.898;8.308;2022-08-19T01:59:44;99838.88;;;20.94;100.00
15634;BME280;14654;48.898;8.308;2022-08-19T02:02:09;99844.13;;;20.94;100.00
15634;BME280;14654;48.898;8.308;2022-08-19T02:04:35;99832.78;;;20.93;100.00
15634;BME280;14654;48.898;8.308;2022-08-19T02:07:03;99834.66;;;20.91;100.00
15634;BME280;14654;48.898;8.308;2022-08-19T02:09:30;99833.78;;;20.91;100.00
15634;BME280;14654;48.898;8.308;2022-08-19T02:11:56;99837.34;;;20.90;100.00
15634;BME280;14654;48.898;8.308;2022-08-19T02:14:21;99840.91;;;20.89;100.00
15634;BME280;14654;48.898;8.308;2022-08-19T02:16:47;99850.59;;;20.88;100.00
15634;BME280;14654;48.898;8.308;2022-08-19T02:19:12;99848.09;;;20.86;100.00
15634;BME280;14654;48.898;8.308;2022-08-19T02:21:38;99840.19;;;20.86;100.00
15634;BME280;14654;48.898;8.308;2022-08-19T02:24:03;99844.59;;;20.86;100.00
15634;BME280;14654;48.898;8.308;2022-08-19T02:26:29;99839.31;;;20.86;100.00
15634;BME280;14654;48.898;8.308;2022-08-19T02:28:55;99845.44;;;20.86;100.00
15634;BME280;14654;48.898;8.308;2022-08-19T02:31:23;99844.59;;;20.86;100.00
15634;BME280;14654;48.898;8.308;2022-08-19T02:33:49;99845.44;;;20.86;100.00
15634;BME280;14654;48.898;8.308;2022-08-19T02:36:16;99844.59;;;20.86;100.00
15634;BME280;14654;48.898;8.308;2022-08-19T02:38:42;99835.75;;;20.87;100.00
15634;BME280;14654;48.898;8.308;2022-08-19T02:41:17;99835.75;;;20.87;100.00
15634;BME280;14654;48.898;8.308;2022-08-19T02:43:43;99826.28;;;20.84;100.00
15634;BME280;14654;48.898;8.308;2022-08-19T02:46:21;99835.00;;;20.85;100.00
15634;BME280;14654;48.898;8.308;2022-08-19T02:48:49;99825.41;;;20.84;100.00
15634;BME280;14654;48.898;8.308;2022-08-19T02:51:26;99827.22;;;20.83;100.00
15634;BME280;14654;48.898;8.308;2022-08-19T02:53:52;99828.16;;;20.82;100.00
15634;BME280;14654;48.898;8.308;2022-08-19T02:56:18;99831.63;;;20.83;100.00
15634;BME280;14654;48.898;8.308;2022-08-19T02:58:44;99836.88;;;20.83;100.00
15634;BME280;14654;48.898;8.308;2022-08-19T03:01:10;99839.31;;;20.86;100.00
15634;BME280;14654;48.898;8.308;2022-08-19T03:03:37;99837.56;;;20.86;100.00
15634;BME280;14654;48.898;8.308;2022-08-19T03:06:13;99843.66;;;20.87;100.00
15634;BME280;14654;48.898;8.308;2022-08-19T03:08:43;99853.25;;;20.88;100.00
15634;BME280;14654;48.898;8.308;2022-08-19T03:11:14;99855.88;;;20.88;100.00
15634;BME280;14654;48.898;8.308;2022-08-19T03:13:39;99853.25;;;20.88;100.00
15634;BME280;14654;48.898;8.308;2022-08-19T03:16:05;99860.28;;;20.88;100.00
15634;BME280;14654;48.898;8.308;2022-08-19T03:18:31;99858.50;;;20.88;100.00
15634;BME280;14654;48.898;8.308;2022-08-19T03:20:56;99853.13;;;20.90;100.00
15634;BME280;14654;48.898;8.308;2022-08-19T03:23:22;99856.69;;;20.89;100.00
15634;BME280;14654;48.898;8.308;2022-08-19T03:25:49;99856.69;;;20.89;100.00
15634;BME280;14654;48.898;8.308;2022-08-19T03:28:16;99856.81;;;20.87;100.00
15634;BME280;14654;48.898;8.308;2022-08-19T03:30:43;99847.22;;;20.86;100.00
15634;BME280;14654;48.898;8.308;2022-08-19T03:33:21;99859.53;;;20.85;100.00
15634;BME280;14654;48.898;8.308;2022-08-19T03:35:46;99870.88;;;20.86;100.00
15634;BME280;14654;48.898;8.308;2022-08-19T03:38:12;99864.78;;;20.85;100.00
15634;BME280;14654;48.898;8.308;2022-08-19T03:40:38;99865.72;;;20.84;100.00
15634;BME280;14654;48.898;8.308;2022-08-19T03:45:28;99859.78;;;20.81;100.00
15634;BME280;14654;48.898;8.308;2022-08-19T03:47:54;99857.44;;;20.76;100.00
15634;BME280;14654;48.898;8.308;2022-08-19T03:50:20;99867.16;;;20.74;100.00
15634;BME280;14654;48.898;8.308;2022-08-19T03:52:51;99862.00;;;20.73;100.00
15634;BME280;14654;48.898;8.308;2022-08-19T03:55:18;99861.41;;;20.67;100.00
15634;BME280;14654;48.898;8.308;2022-08-19T03:57:44;99863.28;;;20.65;100.00
15634;BME280;14654;48.898;8.308;2022-08-19T04:00:11;99855.59;;;20.62;100.00
15634;BME280;14654;48.898;8.308;2022-08-19T04:02:37;99853.97;;;20.60;100.00
15634;BME280;14654;48.898;8.308;2022-08-19T04:05:02;99864.69;;;20.56;100.00
15634;BME280;14654;48.898;8.308;2022-08-19T04:07:28;99865.69;;;20.54;100.00
15634;BME280;14654;48.898;8.308;2022-08-19T04:09:53;99865.78;;;20.52;100.00
15634;BME280;14654;48.898;8.308;2022-08-19T04:12:18;99870.38;;;20.49;100.00
15634;BME280;14654;48.898;8.308;2022-08-19T04:14:45;99865.19;;;20.47;100.00
15634;BME280;14654;48.898;8.308;2022-08-19T04:17:11;99873.25;;;20.44;100.00
15634;BME280;14654;48.898;8.308;2022-08-19T04:19:39;99874.28;;;20.41;100.00
15634;BME280;14654;48.898;8.308;2022-08-19T04:22:05;99881.31;;;20.41;100.00
15634;BME280;14654;48.898;8.308;2022-08-19T04:24:33;99879.63;;;20.40;100.00
15634;BME280;14654;48.898;8.308;2022-08-19T04:27:00;99876.13;;;20.39;100.00
15634;BME280;14654;48.898;8.308;2022-08-19T04:29:27;99866.56;;;20.38;100.00
15634;BME280;14654;48.898;8.308;2022-08-19T04:31:54;99868.34;;;20.38;100.00
15634;BME280;14654;48.898;8.308;2022-08-19T04:34:21;99868.34;;;20.38;100.00
15634;BME280;14654;48.898;8.308;2022-08-19T04:36:47;99863.09;;;20.38;100.00
15634;BME280;14654;48.898;8.308;2022-08-19T04:39:18;99865.63;;;20.39;100.00
15634;BME280;14654;48.898;8.308;2022-08-19T04:41:44;99872.56;;;20.40;100.00
15634;BME280;14654;48.898;8.308;2022-08-19T04:44:30;99880.38;;;20.42;100.00
15634;BME280;14654;48.898;8.308;2022-08-19T04:46:56;99877.66;;;20.44;100.00
15634;BME280;14654;48.898;8.308;2022-08-19T04:49:22;99873.19;;;20.46;100.00
15634;BME280;14654;48.898;8.308;2022-08-19T04:51:49;99878.16;;;20.50;100.00
15634;BME280;14654;48.898;8.308;2022-08-19T04:54:17;99882.38;;;20.53;100.00
15634;BME280;14654;48.898;8.308;2022-08-19T04:56:48;99888.25;;;20.58;100.00
15634;BME280;14654;48.898;8.308;2022-08-19T04:59:14;99901.97;;;20.63;100.00
15634;BME280;14654;48.898;8.308;2022-08-19T05:01:42;99899.16;;;20.66;100.00
15634;BME280;14654;48.898;8.308;2022-08-19T05:04:08;99898.03;;;20.70;100.00
15634;BME280;14654;48.898;8.308;2022-08-19T05:06:34;99900.38;;;20.77;100.00
15634;BME280;14654;48.898;8.308;2022-08-19T05:09:04;99898.50;;;20.79;100.00
15634;BME280;14654;48.898;8.308;2022-08-19T05:11:35;99899.81;;;20.86;100.00
15634;BME280;14654;48.898;8.308;2022-08-19T05:14:04;99901.06;;;20.95;100.00
15634;BME280;14654;48.898;8.308;2022-08-19T05:16:30;99901.56;;;21.01;100.00
15634;BME280;14654;48.898;8.308;2022-08-19T05:18:56;99905.53;;;21.09;100.00
15634;BME280;14654;48.898;8.308;2022-08-19T05:21:41;99913.97;;;21.14;100.00
15634;BME280;14654;48.898;8.308;2022-08-19T05:24:26;99915.66;;;21.15;100.00
15634;BME280;14654;48.898;8.308;2022-08-19T05:26:52;99914.66;;;21.17;100.00
15634;BME280;14654;48.898;8.308;2022-08-19T05:29:22;99927.72;;;21.19;100.00
15634;BME280;14654;48.898;8.308;2022-08-19T05:31:48;99931.00;;;21.23;100.00
15634;BME280;14654;48.898;8.308;2022-08-19T05:34:14;99938.72;;;21.26;100.00
15634;BME280;14654;48.898;8.308;2022-08-19T05:36:42;99930.47;;;21.32;100.00
15634;BME280;14654;48.898;8.308;2022-08-19T05:39:11;99930.19;;;21.37;100.00
15634;BME280;14654;48.898;8.308;2022-08-19T05:41:57;99936.78;;;21.44;100.00
15634;BME280;14654;48.898;8.308;2022-08-19T05:44:28;99944.31;;;21.50;100.00
15634;BME280;14654;48.898;8.308;2022-08-19T05:47:01;99947.78;;;21.51;100.00
15634;BME280;14654;48.898;8.308;2022-08-19T05:49:28;99949.41;;;21.53;100.00
15634;BME280;14654;48.898;8.308;2022-08-19T05:51:54;99956.25;;;21.56;100.00
15634;BME280;14654;48.898;8.308;2022-08-19T05:54:21;99954.44;;;21.56;100.00
15634;BME280;14654;48.898;8.308;2022-08-19T05:56:49;99960.44;;;21.60;100.00
15634;BME280;14654;48.898;8.308;2022-08-19T05:59:16;99954.13;;;21.62;100.00
15634;BME280;14654;48.898;8.308;2022-08-19T06:01:44;99962.69;;;21.66;100.00
15634;BME280;14654;48.898;8.308;2022-08-19T06:04:10;99960.22;;;21.63;100.00
15634;BME280;14654;48.898;8.308;2022-08-19T06:06:36;99963.91;;;21.60;100.00
15634;BME280;14654;48.898;8.308;2022-08-19T06:09:04;99959.66;;;21.58;100.00
15634;BME280;14654;48.898;8.308;2022-08-19T06:14:06;99951.66;;;21.59;100.00
15634;BME280;14654;48.898;8.308;2022-08-19T06:16:35;99960.47;;;21.58;100.00
15634;BME280;14654;48.898;8.308;2022-08-19T06:19:03;99961.34;;;21.59;100.00
15634;BME280;14654;48.898;8.308;2022-08-19T06:21:29;99950.75;;;21.60;100.00
15634;BME280;14654;48.898;8.308;2022-08-19T06:23:56;99958.63;;;21.60;100.00
15634;BME280;14654;48.898;8.308;2022-08-19T06:26:22;99962.13;;;21.61;100.00
15634;BME280;14654;48.898;8.308;2022-08-19T06:28:49;99964.78;;;21.61;100.00
15634;BME280;14654;48.898;8.308;2022-08-19T06:31:17;99972.72;;;21.59;100.00
15634;BME280;14654;48.898;8.308;2022-08-19T06:33:45;99976.13;;;21.61;100.00
15634;BME280;14654;48.898;8.308;2022-08-19T06:36:22;99988.50;;;21.59;100.00
15634;BME280;14654;48.898;8.308;2022-08-19T06:38:52;99979.84;;;21.57;100.00
15634;BME280;14654;48.898;8.308;2022-08-19T06:41:17;99983.34;;;21.58;100.00
15634;BME280;14654;48.898;8.308;2022-08-19T06:43:43;99980.47;;;21.62;100.00
15634;BME280;14654;48.898;8.308;2022-08-19T06:46:10;99987.72;;;21.73;100.00
15634;BME280;14654;48.898;8.308;2022-08-19T06:48:36;99977.38;;;21.85;100.00
15634;BME280;14654;48.898;8.308;2022-08-19T06:51:02;99981.03;;;21.97;100.00
15634;BME280;14654;48.898;8.308;2022-08-19T06:53:28;99981.41;;;22.05;100.00
15634;BME280;14654;48.898;8.308;2022-08-19T06:55:54;99983.47;;;22.14;100.00
15634;BME280;14654;48.898;8.308;2022-08-19T06:58:24;99985.72;;;22.20;100.00
15634;BME280;14654;48.898;8.308;2022-08-19T07:00:50;99982.78;;;22.25;100.00
15634;BME280;14654;48.898;8.308;2022-08-19T07:03:16;99979.78;;;22.31;100.00
15634;BME280;14654;48.898;8.308;2022-08-19T07:05:42;99988.53;;;22.46;100.00
15634;BME280;14654;48.898;8.308;2022-08-19T07:08:07;99980.69;;;22.59;100.00
15634;BME280;14654;48.898;8.308;2022-08-19T07:10:33;99980.63;;;22.74;100.00
15634;BME280;14654;48.898;8.308;2022-08-19T07:13:00;99979.56;;;22.91;100.00
15634;BME280;14654;48.898;8.308;2022-08-19T07:15:25;99974.84;;;23.09;100.00
15634;BME280;14654;48.898;8.308;2022-08-19T07:17:52;99985.59;;;23.33;100.00
15634;BME280;14654;48.898;8.308;2022-08-19T07:20:17;99984.03;;;23.56;100.00
15634;BME280;14654;48.898;8.308;2022-08-19T07:22:42;99989.50;;;23.79;100.00
15634;BME280;14654;48.898;8.308;2022-08-19T07:25:09;99987.47;;;23.96;100.00
15634;BME280;14654;48.898;8.308;2022-08-19T07:27:35;99984.13;;;24.07;100.00
15634;BME280;14654;48.898;8.308;2022-08-19T07:30:00;99989.94;;;24.12;100.00
15634;BME280;14654;48.898;8.308;2022-08-19T07:32:26;99980.81;;;24.16;100.00
15634;BME280;14654;48.898;8.308;2022-08-19T07:34:51;99983.03;;;24.22;100.00
15634;BME280;14654;48.898;8.308;2022-08-19T07:37:17;99982.69;;;24.27;100.00
15634;BME280;14654;48.898;8.308;2022-08-19T07:39:42;99983.09;;;24.33;100.00
15634;BME280;14654;48.898;8.308;2022-08-19T07:42:10;99980.13;;;24.38;100.00
15634;BME280;14654;48.898;8.308;2022-08-19T07:44:36;99980.53;;;24.45;100.00
15634;BME280;14654;48.898;8.308;2022-08-19T07:47:03;99988.03;;;24.51;100.00
15634;BME280;14654;48.898;8.308;2022-08-19T07:49:29;99984.50;;;24.63;100.00
15634;BME280;14654;48.898;8.308;2022-08-19T07:51:59;99983.63;;;24.76;100.00
15634;BME280;14654;48.898;8.308;2022-08-19T07:54:29;99980.31;;;24.85;100.00
15634;BME280;14654;48.898;8.308;2022-08-19T07:56:56;99978.03;;;24.92;100.00
15634;BME280;14654;48.898;8.308;2022-08-19T07:59:22;99985.78;;;24.95;100.00
15634;BME280;14654;48.898;8.308;2022-08-19T08:01:49;99984.69;;;24.98;99.83
15634;BME280;14654;48.898;8.308;2022-08-19T08:04:15;99993.72;;;24.95;99.66
15634;BME280;14654;48.898;8.308;2022-08-19T08:07:00;99993.06;;;24.91;99.51
15634;BME280;14654;48.898;8.308;2022-08-19T08:09:44;99991.88;;;24.95;99.17
15634;BME280;14654;48.898;8.308;2022-08-19T08:12:14;99986.25;;;25.00;98.64
15634;BME280;14654;48.898;8.308;2022-08-19T08:14:48;99984.72;;;25.09;97.55
15634;BME280;14654;48.898;8.308;2022-08-19T08:17:17;99996.59;;;25.27;94.60
15634;BME280;14654;48.898;8.308;2022-08-19T08:19:44;99993.84;;;25.40;93.38
15634;BME280;14654;48.898;8.308;2022-08-19T08:22:11;99985.72;;;25.78;92.38
15634;BME280;14654;48.898;8.308;2022-08-19T08:25:00;99973.56;;;26.32;91.10
15634;BME280;14654;48.898;8.308;2022-08-19T08:27:26;99976.47;;;26.73;89.55
15634;BME280;14654;48.898;8.308;2022-08-19T08:29:57;99987.25;;;27.04;88.40
15634;BME280;14654;48.898;8.308;2022-08-19T08:32:22;99987.31;;;27.35;87.34
15634;BME280;14654;48.898;8.308;2022-08-19T08:34:48;99991.06;;;27.53;86.04
15634;BME280;14654;48.898;8.308;2022-08-19T08:37:13;99986.41;;;27.67;84.93
15634;BME280;14654;48.898;8.308;2022-08-19T08:39:39;99984.81;;;27.86;84.66
15634;BME280;14654;48.898;8.308;2022-08-19T08:42:22;99984.13;;;27.93;82.83
15634;BME280;14654;48.898;8.308;2022-08-19T08:45:00;99986.56;;;28.06;82.45
15634;BME280;14654;48.898;8.308;2022-08-19T08:47:30;99986.75;;;28.14;82.24
15634;BME280;14654;48.898;8.308;2022-08-19T08:50:20;99988.44;;;28.16;79.63
15634;BME280;14654;48.898;8.308;2022-08-19T08:52:50;99979.41;;;28.07;78.35
15634;BME280;14654;48.898;8.308;2022-08-19T08:55:21;99983.53;;;28.11;79.40
15634;BME280;14654;48.898;8.308;2022-08-19T09:00:19;99989.72;;;28.11;77.64
15634;BME280;14654;48.898;8.308;2022-08-19T09:02:46;99993.75;;;27.84;77.23
15634;BME280;14654;48.898;8.308;2022-08-19T09:05:12;99994.59;;;27.54;77.62
15634;BME280;14654;48.898;8.308;2022-08-19T09:10:46;99991.38;;;27.39;77.55
15634;BME280;14654;48.898;8.308;2022-08-19T09:13:52;99989.84;;;27.36;78.84
15634;BME280;14654;48.898;8.308;2022-08-19T09:16:22;99985.06;;;27.51;78.78
15634;BME280;14654;48.898;8.308;2022-08-19T09:18:54;99988.06;;;27.58;78.56
15634;BME280;14654;48.898;8.308;2022-08-19T09:21:24;99998.03;;;27.76;78.22
15634;BME280;14654;48.898;8.308;2022-08-19T09:23:50;99996.72;;;27.91;76.89
15634;BME280;14654;48.898;8.308;2022-08-19T09:26:17;99991.56;;;27.90;76.32
15634;BME280;14654;48.898;8.308;2022-08-19T09:28:47;99984.41;;;28.21;76.19
15634;BME280;14654;48.898;8.308;2022-08-19T09:31:24;99975.22;;;28.45;75.22
15634;BME280;14654;48.898;8.308;2022-08-19T09:33:51;99985.03;;;28.35;75.79
15634;BME280;14654;48.898;8.308;2022-08-19T09:36:20;99982.22;;;28.05;74.03
15634;BME280;14654;48.898;8.308;2022-08-19T09:38:47;99987.00;;;27.71;74.99
15634;BME280;14654;48.898;8.308;2022-08-19T09:41:17;99979.47;;;27.33;75.20
15634;BME280;14654;48.898;8.308;2022-08-19T09:43:45;99976.06;;;26.89;76.65
15634;BME280;14654;48.898;8.308;2022-08-19T09:46:11;99977.69;;;26.69;77.22
15634;BME280;14654;48.898;8.308;2022-08-19T09:48:37;99975.25;;;26.77;77.31
15634;BME280;14654;48.898;8.308;2022-08-19T09:51:08;99981.38;;;26.89;75.95
15634;BME280;14654;48.898;8.308;2022-08-19T09:53:34;99983.19;;;26.88;75.84
15634;BME280;14654;48.898;8.308;2022-08-19T09:56:01;99989.22;;;26.90;76.51
15634;BME280;14654;48.898;8.308;2022-08-19T09:58:26;99992.41;;;27.05;76.39
15634;BME280;14654;48.898;8.308;2022-08-19T10:00:54;99987.19;;;27.15;76.58
15634;BME280;14654;48.898;8.308;2022-08-19T10:03:19;99981.78;;;27.27;75.53
15634;BME280;14654;48.898;8.308;2022-08-19T10:05:45;99980.13;;;27.26;74.67
15634;BME280;14654;48.898;8.308;2022-08-19T10:08:14;99988.28;;;27.13;74.54
15634;BME280;14654;48.898;8.308;2022-08-19T10:10:43;99981.72;;;27.38;74.26
15634;BME280;14654;48.898;8.308;2022-08-19T10:13:09;99985.50;;;27.57;74.26
15634;BME280;14654;48.898;8.308;2022-08-19T10:15:35;99985.50;;;27.57;74.46
15634;BME280;14654;48.898;8.308;2022-08-19T10:18:00;99984.69;;;27.56;72.86
15634;BME280;14654;48.898;8.308;2022-08-19T10:20:26;99985.81;;;27.42;73.34
15634;BME280;14654;48.898;8.308;2022-08-19T10:22:51;99985.75;;;27.53;72.35
15634;BME280;14654;48.898;8.308;2022-08-19T10:25:16;99987.19;;;27.58;72.15
15634;BME280;14654;48.898;8.308;2022-08-19T10:27:42;99982.19;;;27.95;72.34
15634;BME280;14654;48.898;8.308;2022-08-19T10:30:08;99982.44;;;28.23;72.02
15634;BME280;14654;48.898;8.308;2022-08-19T10:32:34;99975.75;;;28.39;71.44
15634;BME280;14654;48.898;8.308;2022-08-19T10:35:00;99976.50;;;28.70;71.67
15634;BME280;14654;48.898;8.308;2022-08-19T10:37:25;99979.78;;;29.03;70.37
15634;BME280;14654;48.898;8.308;2022-08-19T10:39:51;99977.34;;;29.30;69.43
15634;BME280;14654;48.898;8.308;2022-08-19T10:42:17;99965.97;;;29.28;68.90
15634;BME280;14654;48.898;8.308;2022-08-19T10:44:43;99974.84;;;29.09;68.89
15634;BME280;14654;48.898;8.308;2022-08-19T10:47:10;99976.81;;;28.97;69.83
15634;BME280;14654;48.898;8.308;2022-08-19T10:49:35;99971.34;;;28.98;70.05
15634;BME280;14654;48.898;8.308;2022-08-19T10:52:21;99955.91;;;29.22;69.76
15634;BME280;14654;48.898;8.308;2022-08-19T10:54:59;99951.81;;;29.27;69.33
15634;BME280;14654;48.898;8.308;2022-08-19T10:57:43;99950.00;;;29.38;69.10
15634;BME280;14654;48.898;8.308;2022-08-19T11:00:09;99954.72;;;29.63;67.98
15634;BME280;14654;48.898;8.308;2022-08-19T11:02:35;99955.53;;;29.64;67.82
15634;BME280;14654;48.898;8.308;2022-08-19T11:05:00;99942.84;;;29.48;67.76
15634;BME280;14654;48.898;8.308;2022-08-19T11:07:25;99935.56;;;29.30;68.48
15634;BME280;14654;48.898;8.308;2022-08-19T11:09:51;99946.59;;;29.55;68.92
15634;BME280;14654;48.898;8.308;2022-08-19T11:12:17;99942.19;;;29.64;68.64
15634;BME280;14654;48.898;8.308;2022-08-19T11:14:42;99951.72;;;29.66;68.74
15634;BME280;14654;48.898;8.308;2022-08-19T11:17:07;99940.25;;;29.56;68.64
15634;BME280;14654;48.898;8.308;2022-08-19T11:19:33;99933.59;;;29.32;67.95
15634;BME280;14654;48.898;8.308;2022-08-19T11:22:00;99944.13;;;29.72;67.72
15634;BME280;14654;48.898;8.308;2022-08-19T11:24:29;99935.88;;;30.03;66.84
15634;BME280;14654;48.898;8.308;2022-08-19T11:27:04;99920.06;;;30.19;66.46
15634;BME280;14654;48.898;8.308;2022-08-19T11:29:30;99917.19;;;30.03;66.78
15634;BME280;14654;48.898;8.308;2022-08-19T11:31:55;99915.28;;;29.85;67.52
15634;BME280;14654;48.898;8.308;2022-08-19T11:34:23;99917.00;;;29.48;67.79
15634;BME280;14654;48.898;8.308;2022-08-19T11:36:50;99926.16;;;29.16;67.95
15634;BME280;14654;48.898;8.308;2022-08-19T11:39:19;99926.50;;;28.84;69.06
15634;BME280;14654;48.898;8.308;2022-08-19T11:41:45;99923.81;;;28.64;69.39
15634;BME280;14654;48.898;8.308;2022-08-19T11:44:10;99925.91;;;28.41;70.49
15634;BME280;14654;48.898;8.308;2022-08-19T11:46:39;99921.69;;;28.28;71.01
15634;BME280;14654;48.898;8.308;2022-08-19T11:49:05;99930.38;;;28.21;71.85
15634;BME280;14654;48.898;8.308;2022-08-19T11:51:34;99929.66;;;28.28;71.96
15634;BME280;14654;48.898;8.308;2022-08-19T11:54:00;99927.44;;;28.53;71.60
15634;BME280;14654;48.898;8.308;2022-08-19T11:56:26;99922.16;;;28.93;71.26
15634;BME280;14654;48.898;8.308;2022-08-19T11:58:52;99921.81;;;29.35;70.81
15634;BME280;14654;48.898;8.308;2022-08-19T12:01:20;99916.97;;;29.86;70.25
15634;BME280;14654;48.898;8.308;2022-08-19T12:03:47;99920.75;;;30.21;70.08
15634;BME280;14654;48.898;8.308;2022-08-19T12:06:20;99908.78;;;30.44;67.41
15634;BME280;14654;48.898;8.308;2022-08-19T12:08:49;99915.00;;;30.34;67.67
15634;BME280;14654;48.898;8.308;2022-08-19T12:11:14;99919.75;;;30.40;68.47
15634;BME280;14654;48.898;8.308;2022-08-19T12:13:40;99923.66;;;30.28;68.86
15634;BME280;14654;48.898;8.308;2022-08-19T12:16:17;99921.56;;;30.04;67.97
15634;BME280;14654;48.898;8.308;2022-08-19T12:18:43;99928.34;;;29.60;69.30
15634;BME280;14654;48.898;8.308;2022-08-19T12:21:12;99928.97;;;29.25;70.13
15634;BME280;14654;48.898;8.308;2022-08-19T12:23:39;99929.16;;;28.94;70.61
15634;BME280;14654;48.898;8.308;2022-08-19T12:26:04;99930.00;;;28.65;70.93
15634;BME280;14654;48.898;8.308;2022-08-19T12:28:30;99934.16;;;28.38;70.33
15634;BME280;14654;48.898;8.308;2022-08-19T12:30:56;99937.91;;;28.16;71.16
15634;BME280;14654;48.898;8.308;2022-08-19T12:33:22;99938.84;;;28.05;71.73
15634;BME280;14654;48.898;8.308;2022-08-19T12:35:50;99938.25;;;28.01;72.47
15634;BME280;14654;48.898;8.308;2022-08-19T12:38:16;99933.53;;;28.05;72.71
15634;BME280;14654;48.898;8.308;2022-08-19T12:40:45;99932.56;;;28.16;73.17
15634;BME280;14654;48.898;8.308;2022-08-19T12:43:10;99931.34;;;28.29;73.49
15634;BME280;14654;48.898;8.308;2022-08-19T12:45:37;99932.91;;;28.42;73.45
15634;BME280;14654;48.898;8.308;2022-08-19T12:48:03;99934.06;;;28.49;73.16
15634;BME280;14654;48.898;8.308;2022-08-19T12:50:30;99933.91;;;28.51;73.53
15634;BME280;14654;48.898;8.308;2022-08-19T12:52:56;99938.41;;;28.50;73.86
15634;BME280;14654;48.898;8.308;2022-08-19T12:55:22;99930.69;;;28.47;73.95
15634;BME280;14654;48.898;8.308;2022-08-19T12:57:47;99927.59;;;28.42;73.95
15634;BME280;14654;48.898;8.308;2022-08-19T13:00:17;99931.09;;;28.42;74.47
15634;BME280;14654;48.898;8.308;2022-08-19T13:02:45;99932.66;;;28.55;73.87
15634;BME280;14654;48.898;8.308;2022-08-19T13:05:14;99926.50;;;28.74;73.07
15634;BME280;14654;48.898;8.308;2022-08-19T13:07:41;99920.75;;;28.88;71.64
15634;BME280;14654;48.898;8.308;2022-08-19T13:10:13;99923.69;;;29.05;71.00
15634;BME280;14654;48.898;8.308;2022-08-19T13:12:41;99920.28;;;29.23;70.75